メインページ
METAR-TAF:

METAR-TAF

空港 :

シンガポール・チャンギ国際空港

シンガポール, シンガポール

緯度: 01-22N, 経度: 103-59E, 海抜: 5m

現時点の気象観測

当レポートは44分前の11:30(UTC)に作成
変向風 2kt
気温 28°C
湿度 70%
気圧 1008 hPa
視程10km以上
高度1800ftの雲はほとんどない
高度28000ftの雲は散在している

METAR: WSSS 141130Z VRB02KT 9999 FEW018 SCT280 28/22 Q1008 NOSIG

時間: 20:14 (12:14 UTC)

予報

当レポートは1時間14分前の11:00(UTC)に作成
予報は14日の 12時(UTC)から 15日の 18時(UTC)まで有効
南/南西の風 6kt
視程10km以上
高度1800ftの雲はほとんどない, 積乱雲.
高度2000ftの雲は散在している
15日の 00時(UTC)から 15日の 04時(UTC)まで一時的に
視程: 3000m
高度1200ftの雲はほとんどない, 積乱雲.
高度1500ftの千切れ雲あり
激しい雷雨, 雨

TAF: WSSS 141100Z 1412/1518 21006KT 9999 FEW018CB SCT020 TEMPO 1500/1504 3000 TSRA FEW012CB BKN015

4,000以上の空港の気象観測と天気予報(METAR報とTAF報)

利用可能な観測所は地図上に黄色い丸と赤い丸で示す。

丸の上にカーソルを重ねると観測所名を参照できる。

次にクリックすると気象観測と天気予報を参照できる。

マップの切り替え:黒色「×」印の緑ボタンをクリックして拡大、「-」印の緑ボタンをクリックして縮小、緑色の三角印をクリックして隣りの地図に切り替え


METAR-TAF: